createdAt,value
2022-09-24T00:01:33.090Z,99081.44
2022-09-24T00:04:02.341Z,99082.53
2022-09-24T00:06:33.644Z,99089.16
2022-09-24T00:09:00.376Z,99081.13
2022-09-24T00:11:28.618Z,99081.13
2022-09-24T00:13:58.489Z,99086.50
2022-09-24T00:16:27.740Z,99081.41
2022-09-24T00:18:54.768Z,99089.28
2022-09-24T00:21:24.153Z,99083.38
2022-09-24T00:23:56.624Z,99085.47
2022-09-24T00:26:42.535Z,99081.66
2022-09-24T00:29:11.146Z,99082.06
2022-09-24T00:31:38.217Z,99068.69
2022-09-24T00:34:05.482Z,99074.03
2022-09-24T00:36:32.430Z,99073.19
2022-09-24T00:38:59.570Z,99063.34
2022-09-24T00:41:32.660Z,99065.31
2022-09-24T00:43:59.827Z,99077.25
2022-09-24T00:46:44.032Z,99080.22
2022-09-24T00:49:16.784Z,99074.25
2022-09-24T00:51:46.942Z,99076.09
2022-09-24T00:54:19.430Z,99069.78
2022-09-24T00:56:50.189Z,99075.69
2022-09-24T00:59:20.252Z,99067.53
2022-09-24T01:01:49.380Z,99060.63
2022-09-24T01:04:22.284Z,99055.59
2022-09-24T01:06:49.905Z,99054.88
2022-09-24T01:09:22.128Z,99053.06
2022-09-24T01:12:15.420Z,99050.94
2022-09-24T01:15:12.843Z,99039.50
2022-09-24T01:18:00.791Z,99032.88
2022-09-24T01:20:53.394Z,99036.50
2022-09-24T01:23:46.272Z,99036.50
2022-09-24T01:26:40.334Z,99026.41
2022-09-24T01:29:37.491Z,99029.50
2022-09-24T01:32:08.355Z,99021.94
2022-09-24T01:34:46.920Z,99019.00
2022-09-24T01:37:17.794Z,99030.13
2022-09-24T01:39:47.153Z,99018.16
2022-09-24T01:42:15.129Z,99028.03
2022-09-24T01:44:44.418Z,99028.16
2022-09-24T01:47:23.303Z,99046.16
2022-09-24T01:49:53.759Z,99032.94
2022-09-24T01:52:26.325Z,99033.19
2022-09-24T01:54:56.513Z,99035.28
2022-09-24T01:57:30.030Z,99034.16
2022-09-24T02:00:09.953Z,99032.94
2022-09-24T02:02:51.938Z,99030.13
2022-09-24T02:05:43.222Z,99028.84
2022-09-24T02:08:18.446Z,99023.25
2022-09-24T02:10:50.880Z,99017.31
2022-09-24T02:13:20.456Z,99014.63
2022-09-24T02:15:54.094Z,99021.38
2022-09-24T02:18:25.678Z,99019.78
2022-09-24T02:20:53.258Z,99017.69
2022-09-24T02:23:20.610Z,99011.75
2022-09-24T02:25:57.984Z,99005.53
2022-09-24T02:28:25.567Z,99003.88
2022-09-24T02:30:59.274Z,99007.38
2022-09-24T02:33:46.702Z,99002.88
2022-09-24T02:36:13.390Z,99005.84
2022-09-24T02:38:39.955Z,99006.69
2022-09-24T02:41:09.186Z,98999.38
2022-09-24T02:43:36.312Z,98997.41
2022-09-24T02:46:03.005Z,98998.28
2022-09-24T02:48:29.640Z,98990.25
2022-09-24T02:50:56.086Z,98984.47
2022-09-24T02:53:22.733Z,98985.34
2022-09-24T02:55:49.251Z,98984.78
2022-09-24T02:58:15.792Z,98985.03
2022-09-24T03:00:42.293Z,98984.47
2022-09-24T03:03:08.735Z,98979.66
2022-09-24T03:05:35.378Z,98980.63
2022-09-24T03:08:01.892Z,98991.31
2022-09-24T03:10:28.388Z,98989.19
2022-09-24T03:12:55.192Z,98996.50
2022-09-24T03:15:21.617Z,98988.63
2022-09-24T03:17:48.289Z,98998.44
2022-09-24T03:20:14.840Z,98997.47
2022-09-24T03:22:41.516Z,99001.56
2022-09-24T03:25:08.581Z,99003.13
2022-09-24T03:27:35.167Z,98999.06
2022-09-24T03:30:20.513Z,98994.41
2022-09-24T03:32:48.076Z,98995.72
2022-09-24T03:35:15.685Z,98993.88
2022-09-24T03:37:47.029Z,98994.34
2022-09-24T03:40:15.733Z,98991.53
2022-09-24T03:42:42.207Z,98999.84
2022-09-24T03:45:09.273Z,98997.88
2022-09-24T03:47:35.861Z,99001.25
2022-09-24T03:50:02.579Z,98992.97
2022-09-24T03:52:29.729Z,98989.88
2022-09-24T03:54:56.298Z,98992.25
2022-09-24T03:57:22.712Z,98998.03
2022-09-24T03:59:49.135Z,98993.28
2022-09-24T04:02:15.604Z,98992.72
2022-09-24T04:04:42.127Z,98982.44
2022-09-24T04:07:08.552Z,98987.41
2022-09-24T04:09:35.055Z,98984.28
2022-09-24T04:12:02.185Z,98989.50
2022-09-24T04:14:29.397Z,98979.38
2022-09-24T04:16:55.922Z,98984.47
2022-09-24T04:19:22.342Z,98981.50
2022-09-24T04:21:48.784Z,98970.53
2022-09-24T04:24:15.341Z,98965.88
2022-09-24T04:26:42.016Z,98967.44
2022-09-24T04:29:08.835Z,98961.78
2022-09-24T04:31:35.440Z,98973.06
2022-09-24T04:34:02.069Z,98969.41
2022-09-24T04:36:28.745Z,98966.03
2022-09-24T04:38:55.173Z,98968.72
2022-09-24T04:41:21.884Z,98960.69
2022-09-24T04:43:48.351Z,98959.69
2022-09-24T04:46:15.106Z,98955.88
2022-09-24T04:48:41.615Z,98961.78
2022-09-24T04:51:08.796Z,98957.28
2022-09-24T04:53:37.120Z,98957.84
2022-09-24T04:56:05.521Z,98958.69
2022-09-24T04:58:32.121Z,98949.38
2022-09-24T05:01:03.751Z,98953.06
2022-09-24T05:03:30.425Z,98962.06
2022-09-24T05:05:56.981Z,98955.75
2022-09-24T05:08:23.345Z,98951.38
2022-09-24T05:10:50.503Z,98944.63
2022-09-24T05:13:17.172Z,98939.84
2022-09-24T05:15:43.900Z,98939.56
2022-09-24T05:18:10.565Z,98936.75
2022-09-24T05:20:37.627Z,98946.16
2022-09-24T05:23:04.743Z,98945.00
2022-09-24T05:25:31.319Z,98943.19
2022-09-24T05:27:58.076Z,98944.03
2022-09-24T05:30:25.820Z,98948.09
2022-09-24T05:32:52.866Z,98950.09
2022-09-24T05:35:23.998Z,98947.41
2022-09-24T05:37:53.310Z,98951.66
2022-09-24T05:40:38.904Z,98952.47
2022-09-24T05:43:05.523Z,98956.16
2022-09-24T05:45:32.718Z,98956.72
2022-09-24T05:48:00.166Z,98948.28
2022-09-24T05:50:27.140Z,98953.34
2022-09-24T05:52:53.664Z,98954.75
2022-09-24T05:55:20.126Z,98959.94
2022-09-24T05:57:46.606Z,98959.94
2022-09-24T06:00:13.285Z,98962.50
2022-09-24T06:02:39.967Z,98962.22
2022-09-24T06:05:06.953Z,98953.03
2022-09-24T06:07:33.699Z,98952.88
2022-09-24T06:10:00.784Z,98958.09
2022-09-24T06:12:27.545Z,98950.63
2022-09-24T06:14:54.117Z,98951.16
2022-09-24T06:17:21.664Z,98951.03
2022-09-24T06:19:48.251Z,98953.84
2022-09-24T06:22:14.853Z,98955.47
2022-09-24T06:24:41.412Z,98955.75
2022-09-24T06:27:07.840Z,98958.50
2022-09-24T06:29:35.027Z,98958.50
2022-09-24T06:32:01.904Z,98954.69
2022-09-24T06:34:28.819Z,98951.09
2022-09-24T06:36:56.927Z,98957.66
2022-09-24T06:39:24.361Z,98955.22
2022-09-24T06:41:51.500Z,98955.84
2022-09-24T06:44:19.221Z,98956.69
2022-09-24T06:46:46.055Z,98964.84
2022-09-24T06:49:12.682Z,98958.63
2022-09-24T06:51:39.246Z,98962.22
2022-09-24T06:54:06.139Z,98961.28
2022-09-24T06:56:32.721Z,98958.28
2022-09-24T06:58:59.148Z,98961.69
2022-09-24T07:01:25.644Z,98964.06
2022-09-24T07:03:52.153Z,98966.53
2022-09-24T07:06:18.659Z,98961.81
2022-09-24T07:08:45.339Z,98961.69
2022-09-24T07:11:13.659Z,98960.69
2022-09-24T07:13:40.140Z,98963.41
2022-09-24T07:16:06.838Z,98963.22
2022-09-24T07:18:33.389Z,98970.50
2022-09-24T07:21:00.952Z,98968.19
2022-09-24T07:23:27.757Z,98964.72
2022-09-24T07:25:57.693Z,98961.03
2022-09-24T07:28:24.582Z,98956.28
2022-09-24T07:30:58.991Z,98959.97
2022-09-24T07:33:26.212Z,98962.41
2022-09-24T07:35:52.799Z,98966.56
2022-09-24T07:38:19.860Z,98963.78
2022-09-24T07:40:46.544Z,98965.56
2022-09-24T07:43:15.124Z,98968.81
2022-09-24T07:45:42.881Z,98964.03
2022-09-24T07:48:10.798Z,98965.41
2022-09-24T07:50:42.661Z,98968.16
2022-09-24T07:53:12.663Z,98955.88
2022-09-24T07:55:41.089Z,98968.25
2022-09-24T07:58:19.428Z,98964.72
2022-09-24T08:00:46.653Z,98966.44
2022-09-24T08:03:13.666Z,98957.34
2022-09-24T08:05:47.741Z,98959.03
2022-09-24T08:08:15.172Z,98963.22
2022-09-24T08:10:42.479Z,98961.56
2022-09-24T08:13:09.147Z,98960.38
2022-09-24T08:15:35.790Z,98961.41
2022-09-24T08:18:06.002Z,98968.16
2022-09-24T08:20:33.542Z,98963.50
2022-09-24T08:23:05.222Z,98963.16
2022-09-24T08:25:32.105Z,98967.56
2022-09-24T08:28:03.328Z,98955.09
2022-09-24T08:30:30.901Z,98958.78
2022-09-24T08:32:58.174Z,98962.16
2022-09-24T08:35:25.298Z,98961.81
2022-09-24T08:37:54.870Z,98960.63
2022-09-24T08:40:28.485Z,98952.72
2022-09-24T08:43:24.289Z,98956.06
2022-09-24T08:46:15.147Z,98958.75
2022-09-24T08:48:46.466Z,98951.47
2022-09-24T08:51:19.039Z,98947.59
2022-09-24T08:54:07.727Z,98955.69
2022-09-24T08:56:37.533Z,98946.28
2022-09-24T08:59:23.395Z,98951.84
2022-09-24T09:02:18.231Z,98949.97
2022-09-24T09:05:24.063Z,98954.28
2022-09-24T09:08:42.235Z,98950.84
2022-09-24T09:11:07.969Z,98946.09
2022-09-24T09:13:41.141Z,98945.41
2022-09-24T09:16:21.471Z,98936.41
2022-09-24T09:18:51.579Z,98935.88
2022-09-24T09:21:22.918Z,98941.25
2022-09-24T09:23:50.849Z,98940.38
2022-09-24T09:26:20.071Z,98949.50
2022-09-24T09:28:47.927Z,98947.50
2022-09-24T09:31:58.819Z,98942.56
2022-09-24T09:34:43.543Z,98952.31
2022-09-24T09:37:26.351Z,98949.44
2022-09-24T09:40:12.773Z,98946.13
2022-09-24T09:42:42.991Z,98939.59
2022-09-24T09:45:18.611Z,98938.50
2022-09-24T09:47:55.620Z,98930.28
2022-09-24T09:50:48.794Z,98931.22
2022-09-24T09:53:26.916Z,98925.19
2022-09-24T09:56:06.444Z,98928.31
2022-09-24T09:58:35.998Z,98921.66
2022-09-24T10:01:15.435Z,98921.47
2022-09-24T10:03:44.927Z,98930.25
2022-09-24T10:06:14.403Z,98931.63
2022-09-24T10:08:40.882Z,98925.31
2022-09-24T10:11:15.295Z,98937.25
2022-09-24T10:13:41.725Z,98937.16
2022-09-24T10:16:12.169Z,98939.56
2022-09-24T10:18:44.008Z,98945.38
2022-09-24T10:21:14.321Z,98940.03
2022-09-24T10:23:43.457Z,98940.03
2022-09-24T10:26:10.696Z,98942.28
2022-09-24T10:29:03.775Z,98944.31
2022-09-24T10:31:32.304Z,98938.25
2022-09-24T10:34:01.797Z,98942.66
2022-09-24T10:36:32.392Z,98934.63
2022-09-24T10:39:07.767Z,98934.56
2022-09-24T10:41:35.781Z,98939.13
2022-09-24T10:44:11.720Z,98928.69
2022-09-24T10:47:12.719Z,98936.75
2022-09-24T10:49:57.450Z,98923.25
2022-09-24T10:52:47.433Z,98923.72
2022-09-24T10:55:29.129Z,98911.16
2022-09-24T10:58:14.432Z,98919.81
2022-09-24T11:00:59.917Z,98916.63
2022-09-24T11:03:32.288Z,98913.94
2022-09-24T11:06:10.878Z,98903.22
2022-09-24T11:08:55.614Z,98909.78
2022-09-24T11:11:32.886Z,98906.72
2022-09-24T11:14:31.104Z,98904.00
2022-09-24T11:17:00.488Z,98900.78
2022-09-24T11:19:48.961Z,98899.47
2022-09-24T11:22:44.057Z,98903.66
2022-09-24T11:25:16.772Z,98902.38
2022-09-24T11:28:17.111Z,98900.03
2022-09-24T11:31:02.392Z,98903.19
2022-09-24T11:33:41.012Z,98906.25
2022-09-24T11:36:07.380Z,98899.13
2022-09-24T11:39:01.352Z,98894.56
2022-09-24T11:41:47.605Z,98893.47
2022-09-24T11:44:31.428Z,98892.44
2022-09-24T11:47:26.366Z,98880.41
2022-09-24T11:50:06.368Z,98881.03
2022-09-24T11:52:41.712Z,98875.69
2022-09-24T11:55:18.230Z,98882.72
2022-09-24T11:58:00.735Z,98876.94
2022-09-24T12:00:36.873Z,98873.38
2022-09-24T12:03:14.215Z,98880.56
2022-09-24T12:05:52.255Z,98871.94
2022-09-24T12:08:21.969Z,98873.22
2022-09-24T12:11:15.700Z,98871.78
2022-09-24T12:13:45.049Z,98866.09
2022-09-24T12:16:15.342Z,98872.81
2022-09-24T12:18:57.562Z,98863.63
2022-09-24T12:21:34.418Z,98863.41
2022-09-24T12:24:07.254Z,98858.69
2022-09-24T12:26:37.516Z,98861.41
2022-09-24T12:29:36.701Z,98861.41
2022-09-24T12:32:33.807Z,98853.97
2022-09-24T12:35:19.249Z,98853.53
2022-09-24T12:37:51.053Z,98851.66
2022-09-24T12:40:32.980Z,98848.13
2022-09-24T12:43:02.617Z,98845.84
2022-09-24T12:45:29.869Z,98851.41
2022-09-24T12:48:01.184Z,98841.75
2022-09-24T12:50:31.276Z,98841.28
2022-09-24T12:52:57.983Z,98847.53
2022-09-24T12:55:30.771Z,98851.22
2022-09-24T12:58:05.745Z,98848.13
2022-09-24T13:00:32.146Z,98850.44
2022-09-24T13:02:59.864Z,98851.25
2022-09-24T13:05:32.672Z,98846.09
2022-09-24T13:08:24.617Z,98852.69
2022-09-24T13:11:05.833Z,98846.63
2022-09-24T13:13:40.889Z,98842.81
2022-09-24T13:16:19.713Z,98846.34
2022-09-24T13:18:55.045Z,98846.28
2022-09-24T13:21:25.204Z,98841.50
2022-09-24T13:23:52.071Z,98843.00
2022-09-24T13:26:24.517Z,98834.19
2022-09-24T13:29:00.616Z,98837.44
2022-09-24T13:31:41.857Z,98833.88
2022-09-24T13:34:11.112Z,98837.56
2022-09-24T13:36:44.474Z,98836.72
2022-09-24T13:39:48.496Z,98836.50
2022-09-24T13:42:25.715Z,98830.06
2022-09-24T13:45:00.418Z,98834.13
2022-09-24T13:47:45.350Z,98834.25
2022-09-24T13:50:44.007Z,98848.06
2022-09-24T13:53:32.465Z,98842.75
2022-09-24T13:56:02.306Z,98841.09
2022-09-24T13:58:30.024Z,98842.88
2022-09-24T14:00:59.727Z,98838.47
2022-09-24T14:03:30.855Z,98835.16
2022-09-24T14:05:57.675Z,98832.91
2022-09-24T14:08:27.479Z,98837.66
2022-09-24T14:11:13.231Z,98835.16
2022-09-24T14:13:45.602Z,98838.34
2022-09-24T14:16:18.756Z,98841.06
2022-09-24T14:18:45.832Z,98839.28
2022-09-24T14:21:50.708Z,98842.63
2022-09-24T14:24:34.630Z,98847.31
2022-09-24T14:27:03.506Z,98840.97
2022-09-24T14:29:52.420Z,98845.38
2022-09-24T14:32:32.624Z,98846.19
2022-09-24T14:35:27.766Z,98852.28
2022-09-24T14:38:04.434Z,98849.13
2022-09-24T14:40:46.140Z,98850.13
2022-09-24T14:43:22.351Z,98852.84
2022-09-24T14:45:50.619Z,98862.47
2022-09-24T14:48:31.649Z,98867.19
2022-09-24T14:50:58.240Z,98864.72
2022-09-24T14:53:27.039Z,98870.13
2022-09-24T14:55:54.053Z,98866.47
2022-09-24T14:58:36.377Z,98865.34
2022-09-24T15:01:24.905Z,98868.59
2022-09-24T15:03:56.357Z,98863.38
2022-09-24T15:06:25.895Z,98869.66
2022-09-24T15:09:05.132Z,98868.34
2022-09-24T15:11:34.444Z,98872.09
2022-09-24T15:14:27.218Z,98876.81
2022-09-24T15:16:55.010Z,98885.50
2022-09-24T15:19:22.619Z,98877.28
2022-09-24T15:21:52.255Z,98878.03
2022-09-24T15:24:20.126Z,98879.59
2022-09-24T15:26:58.036Z,98885.94
2022-09-24T15:29:24.789Z,98889.56
2022-09-24T15:31:52.506Z,98896.06
2022-09-24T15:34:20.510Z,98903.69
2022-09-24T15:36:55.608Z,98891.94
2022-09-24T15:39:23.240Z,98894.69
2022-09-24T15:41:49.710Z,98901.44
2022-09-24T15:44:22.480Z,98900.69
2022-09-24T15:46:51.067Z,98913.19
2022-09-24T15:49:22.320Z,98909.09
2022-09-24T15:51:59.734Z,98913.66
2022-09-24T15:54:26.084Z,98906.88
2022-09-24T15:56:52.703Z,98905.00
2022-09-24T15:59:21.092Z,98906.69
2022-09-24T16:01:50.981Z,98909.38
2022-09-24T16:04:17.414Z,98909.38
2022-09-24T16:06:43.821Z,98907.06
2022-09-24T16:09:10.305Z,98904.38
2022-09-24T16:11:36.734Z,98918.22
2022-09-24T16:14:03.116Z,98911.50
2022-09-24T16:16:29.651Z,98915.13
2022-09-24T16:18:56.038Z,98917.34
2022-09-24T16:21:22.387Z,98912.91
2022-09-24T16:23:54.784Z,98918.69
2022-09-24T16:26:21.232Z,98917.84
2022-09-24T16:28:50.048Z,98930.53
2022-09-24T16:31:16.473Z,98937.97
2022-09-24T16:33:42.922Z,98933.16
2022-09-24T16:36:09.618Z,98924.69
2022-09-24T16:38:37.581Z,98924.91
2022-09-24T16:41:05.538Z,98932.72
2022-09-24T16:43:32.774Z,98938.81
2022-09-24T16:46:03.888Z,98939.16
2022-09-24T16:48:31.338Z,98935.97
2022-09-24T16:51:08.668Z,98939.19
2022-09-24T16:53:35.753Z,98947.63
2022-09-24T16:56:13.096Z,98938.88
2022-09-24T16:58:41.155Z,98940.28
2022-09-24T17:01:09.706Z,98942.97
2022-09-24T17:03:36.529Z,98949.56
2022-09-24T17:06:03.400Z,98944.31
2022-09-24T17:08:53.276Z,98943.50
2022-09-24T17:11:20.175Z,98942.34
2022-09-24T17:13:49.374Z,98955.84
2022-09-24T17:16:16.581Z,98956.19
2022-09-24T17:18:42.999Z,98959.41
2022-09-24T17:21:11.527Z,98970.72
2022-09-24T17:23:38.955Z,98969.06
2022-09-24T17:26:11.714Z,98969.38
2022-09-24T17:28:40.639Z,98962.28
2022-09-24T17:31:08.744Z,98971.13
2022-09-24T17:33:43.419Z,98966.75
2022-09-24T17:36:10.879Z,98978.06
2022-09-24T17:38:37.813Z,98974.50
2022-09-24T17:41:06.639Z,98969.66
2022-09-24T17:43:34.117Z,98974.03
2022-09-24T17:46:14.912Z,98980.13
2022-09-24T17:48:44.504Z,98985.69
2022-09-24T17:51:19.822Z,98988.06
2022-09-24T17:53:46.821Z,98987.56
2022-09-24T17:56:14.440Z,98981.28
2022-09-24T17:58:44.274Z,98992.78
2022-09-24T18:01:22.578Z,98994.28
2022-09-24T18:03:56.597Z,98989.56
2022-09-24T18:06:25.649Z,98985.72
2022-09-24T18:08:54.537Z,98986.91
2022-09-24T18:11:27.085Z,98988.75
2022-09-24T18:13:55.736Z,98998.16
2022-09-24T18:16:24.588Z,98998.16
2022-09-24T18:18:51.434Z,98995.31
2022-09-24T18:21:20.745Z,98998.16
2022-09-24T18:23:48.004Z,98995.84
2022-09-24T18:26:21.454Z,98994.97
2022-09-24T18:28:47.826Z,98994.81
2022-09-24T18:31:14.574Z,98993.81
2022-09-24T18:33:42.742Z,98998.88
2022-09-24T18:36:11.911Z,99003.38
2022-09-24T18:38:38.630Z,99005.25
2022-09-24T18:41:12.854Z,98998.00
2022-09-24T18:43:39.875Z,99007.78
2022-09-24T18:46:08.937Z,99010.63
2022-09-24T18:48:35.584Z,99013.00
2022-09-24T18:51:01.975Z,99008.94
2022-09-24T18:53:31.334Z,99004.91
2022-09-24T18:56:02.980Z,99006.63
2022-09-24T18:58:29.347Z,99008.28
2022-09-24T19:01:05.435Z,99005.59
2022-09-24T19:03:32.278Z,99008.97
2022-09-24T19:06:04.221Z,99001.06
2022-09-24T19:08:31.978Z,99005.59
2022-09-24T19:11:17.394Z,98998.69
2022-09-24T19:13:49.404Z,99001.22
2022-09-24T19:16:17.836Z,99012.00
2022-09-24T19:18:44.388Z,99010.47
2022-09-24T19:21:14.023Z,99011.81
2022-09-24T19:23:45.906Z,99013.00
2022-09-24T19:26:15.911Z,99012.16
2022-09-24T19:28:43.329Z,99016.72
2022-09-24T19:31:14.973Z,99015.00
2022-09-24T19:33:41.687Z,99015.00
2022-09-24T19:36:09.450Z,99021.09
2022-09-24T19:38:37.080Z,99015.00
2022-09-24T19:41:27.124Z,99016.03
2022-09-24T19:43:58.567Z,99026.97
2022-09-24T19:46:27.186Z,99023.44
2022-09-24T19:48:55.381Z,99019.38
2022-09-24T19:51:30.183Z,99012.34
2022-09-24T19:53:59.097Z,99016.19
2022-09-24T19:56:26.372Z,99018.72
2022-09-24T19:58:55.800Z,99018.03
2022-09-24T20:01:24.872Z,99027.13
2022-09-24T20:03:51.629Z,99020.56
2022-09-24T20:06:22.512Z,99028.13
2022-09-24T20:08:49.885Z,99026.78
2022-09-24T20:11:22.211Z,99027.78
2022-09-24T20:13:49.932Z,99022.41
2022-09-24T20:16:19.407Z,99027.13
2022-09-24T20:18:50.634Z,99019.19
2022-09-24T20:21:18.777Z,99018.38
2022-09-24T20:23:46.745Z,99013.16
2022-09-24T20:26:33.121Z,99018.19
2022-09-24T20:28:59.790Z,99015.66
2022-09-24T20:31:26.415Z,99020.16
2022-09-24T20:33:53.801Z,99018.84
2022-09-24T20:36:24.031Z,99025.03
2022-09-24T20:38:51.315Z,99025.22
2022-09-24T20:41:20.103Z,99026.22
2022-09-24T20:43:46.775Z,99026.22
2022-09-24T20:46:19.203Z,99035.47
2022-09-24T20:48:45.722Z,99025.06
2022-09-24T20:51:14.712Z,99030.44
2022-09-24T20:53:41.850Z,99029.41
2022-09-24T20:56:09.273Z,99026.88
2022-09-24T20:58:37.141Z,99032.78
2022-09-24T21:01:04.284Z,99032.78
2022-09-24T21:03:43.980Z,99035.81
2022-09-24T21:06:12.135Z,99029.72
2022-09-24T21:08:40.977Z,99032.59
2022-09-24T21:11:19.040Z,99026.38
2022-09-24T21:13:50.045Z,99030.91
2022-09-24T21:16:28.853Z,99022.69
2022-09-24T21:18:55.924Z,99035.47
2022-09-24T21:21:23.471Z,99033.75
2022-09-24T21:23:52.813Z,99038.31
2022-09-24T21:26:28.316Z,99036.78
2022-09-24T21:28:58.701Z,99046.72
2022-09-24T21:31:31.505Z,99043.19
2022-09-24T21:33:58.459Z,99048.38
2022-09-24T21:36:28.662Z,99047.19
2022-09-24T21:39:04.914Z,99048.88
2022-09-24T21:41:36.055Z,99056.28
2022-09-24T21:44:03.187Z,99054.59
2022-09-24T21:46:33.072Z,99056.28
2022-09-24T21:49:00.476Z,99056.81
2022-09-24T21:51:29.958Z,99046.88
2022-09-24T21:54:01.787Z,99050.41
2022-09-24T21:56:29.901Z,99052.94
2022-09-24T21:58:57.192Z,99051.25
2022-09-24T22:01:27.750Z,99050.91
2022-09-24T22:03:56.122Z,99051.91
2022-09-24T22:06:26.408Z,99045.69
2022-09-24T22:08:54.695Z,99052.72
2022-09-24T22:11:21.169Z,99053.03
2022-09-24T22:13:47.774Z,99051.84
2022-09-24T22:16:14.167Z,99050.88
2022-09-24T22:18:40.665Z,99057.91
2022-09-24T22:21:10.424Z,99059.44
2022-09-24T22:23:37.530Z,99054.91
2022-09-24T22:26:05.640Z,99044.13
2022-09-24T22:28:32.430Z,99048.38
2022-09-24T22:31:02.943Z,99052.06
2022-09-24T22:33:48.885Z,99046.00
2022-09-24T22:36:15.783Z,99048.69
2022-09-24T22:38:42.315Z,99039.94
2022-09-24T22:41:10.997Z,99039.28
2022-09-24T22:43:39.037Z,99045.47
2022-09-24T22:46:08.551Z,99043.78
2022-09-24T22:48:35.129Z,99040.56
2022-09-24T22:51:02.191Z,99034.38
2022-09-24T22:53:29.046Z,99040.56
2022-09-24T22:56:12.089Z,99045.97
2022-09-24T22:58:41.363Z,99047.50
2022-09-24T23:01:09.874Z,99046.47
2022-09-24T23:03:36.939Z,99053.72
2022-09-24T23:06:05.916Z,99049.31
2022-09-24T23:08:34.140Z,99049.84
2022-09-24T23:11:15.971Z,99054.53
2022-09-24T23:13:44.545Z,99059.94
2022-09-24T23:16:16.788Z,99048.16
2022-09-24T23:18:45.735Z,99051.84
2022-09-24T23:21:15.792Z,99046.63
2022-09-24T23:23:42.844Z,99043.09
2022-09-24T23:26:16.448Z,99049.13
2022-09-24T23:28:46.077Z,99049.13
2022-09-24T23:31:14.360Z,99054.19
2022-09-24T23:33:42.117Z,99045.97
2022-09-24T23:36:10.990Z,99053.81
2022-09-24T23:38:38.971Z,99045.75
2022-09-24T23:41:06.658Z,99040.69
2022-09-24T23:43:33.825Z,99044.41
2022-09-24T23:46:00.275Z,99043.75
2022-09-24T23:48:27.736Z,99055.56
2022-09-24T23:50:54.775Z,99049.00
2022-09-24T23:53:24.594Z,99052.16
2022-09-24T23:55:51.845Z,99052.84
2022-09-24T23:58:20.847Z,99051.66
